Buoy 46770

sailwx.info

Track history (hours):
 
Tides and Currents Weather Stations Pressure Air Temp Water Temp Dewpoint Dewpoint Depression Visibility Wind Speed Wind Dir Waves Ship Positions

Drifting buoy 46770

Last reported at 2014-Aug-01 07:30 UTC. Time now 2014-Aug-01 14:00 UTC.
Position N 50°40' E 169°52'.

Barometer 1009.9 mb
Water temperature 11.6 ° C

Date/timePositionNaut miles runAvg speedWind from/ knotsBaromVisibWave heightAir tempDewpointWater temp
2014-Aug-01 07:30N 50°40' E 169°52'1 0.4 1009.9 11.6
2014-Aug-01 04:30N 50°40' E 169°53'1 0.3 1009.0 11.6
2014-Aug-01 02:30N 50°39' E 169°54'2 0.6 1008.7 11.6
2014-Jul-31 23:30N 50°37' E 169°55'3 0.7 1008.0 11.5
2014-Jul-31 19:30N 50°37' E 169°59'0 0.2 1006.6 11.4
2014-Jul-31 16:30N 50°37' E 170°00'0 0.1 1004.8 11.4
2014-Jul-31 15:30N 50°37' E 170°00'1 0.4 1004.5 11.4
2014-Jul-31 13:30N 50°36' E 170°01'2 0.5 1004.1 11.4
2014-Jul-31 09:30N 50°35' E 170°03'3 0.7 1003.3 11.4
2014-Jul-31 05:30N 50°34' E 170°08'1 0.8 1002.3 11.4
2014-Jul-31 04:30N 50°34' E 170°09'2 0.6 1002.4 11.4
2014-Jul-31 01:30N 50°34' E 170°12'0 0.0 1002.4 11.4
2014-Jul-31 00:30N 50°34' E 170°12'3 0.4 1002.4 11.4
2014-Jul-30 17:30N 50°33' E 170°16'1 0.7 1002.3 11.3
2014-Jul-30 16:30N 50°33' E 170°17'1 1.4 1002.1 11.3
2014-Jul-30 15:30N 50°32' E 170°19'4 0.5 1002.3 11.3
2014-Jul-30 08:30N 50°33' E 170°25'1 1.0 1002.9 11.4
2014-Jul-30 07:30N 50°33' E 170°26'0 0.0 1002.5 11.4
2014-Jul-30 06:30N 50°33' E 170°26'3 0.7 1002.2 11.4
2014-Jul-30 02:30N 50°33' E 170°30'1 0.5 1001.3 11.3
2014-Jul-30 01:30N 50°32' E 170°30'4 0.6 1001.3 11.3
2014-Jul-29 18:30N 50°34' E 170°36'0 0.0 1001.4 11.2
2014-Jul-29 17:30N 50°34' E 170°36'1 0.5 1001.5 11.2
2014-Jul-29 16:30N 50°34' E 170°37'1 0.7 1001.9 11.2
2014-Jul-29 15:30N 50°34' E 170°38'0 0.3 1002.3 11.2
2014-Jul-29 14:30N 50°34' E 170°38'4 0.7 1002.6 11.2
2014-Jul-29 09:30N 50°33' E 170°43'1 0.6 1003.5 11.2
2014-Jul-29 07:30N 50°33' E 170°45'3 1.0 1004.0 11.3
2014-Jul-29 04:30N 50°34' E 170°49'2 0.5 1004.5 11.3
2014-Jul-28 23:30N 50°35' E 170°52'0 0.0 1006.2 11.2
2014-Jul-28 22:30N 50°35' E 170°52'2 0.4 1006.3 11.2
2014-Jul-28 18:30N 50°36' E 170°54'6 0.9 1007.3 11.2
2014-Jul-28 12:30N 50°38' E 171°03'1 0.3 1007.9 11.1
2014-Jul-28 09:30N 50°38' E 171°03'2 0.4 1008.5 11.1
2014-Jul-28 03:30N 50°40' E 171°06'1 1.2 1008.8 11.1
2014-Jul-28 02:30N 50°40' E 171°08'0 0.4 1009.2 11.1
2014-Jul-28 01:30N 50°40' E 171°09'1 0.5 1009.6 11.1
2014-Jul-28 00:30N 50°40' E 171°09'5 0.6 1010.1 11.1
2014-Jul-27 16:30N 50°43' E 171°15'0 0.2 1010.5 11.0
2014-Jul-27 14:30N 50°44' E 171°15'2 0.5 1010.7 11.1
2014-Jul-27 09:30N 50°45' E 171°19'0 0.4 1011.5 11.2
2014-Jul-27 08:30N 50°45' E 171°19'3 0.7 1011.5 11.2
2014-Jul-27 04:30N 50°45' E 171°24'2 0.5 1012.8 11.3
2014-Jul-27 01:30N 50°46' E 171°26'0 0.0 1015.0 11.3
2014-Jul-27 00:30N 50°46' E 171°26'2 1.0 1015.6 11.3
2014-Jul-26 22:30N 50°46' E 171°29'4 0.6 1016.8 11.3
2014-Jul-26 16:30N 50°50' E 171°32'0 0.2 1017.8 11.3
2014-Jul-26 15:30N 50°50' E 171°32'1 0.6 1018.2 11.3
2014-Jul-26 14:30N 50°50' E 171°33'0 0.0 1018.6 11.3
2014-Jul-26 13:30N 50°50' E 171°33'3 0.7 1018.8 11.3
2014-Jul-26 08:30N 50°52' E 171°38'0 0.0 1020.5 11.4
2014-Jul-26 07:30N 50°52' E 171°38'3 0.6 1020.3 11.4
2014-Jul-26 02:30N 50°55' E 171°40'0 0.3 1022.3 11.3
2014-Jul-26 01:30N 50°55' E 171°39'1 0.6 1022.5 11.3
2014-Jul-26 00:30N 50°55' E 171°39'2 0.6 1022.9 11.3
2014-Jul-25 21:30N 50°57' E 171°41'1 0.3 1024.0 11.3
2014-Jul-25 18:30N 50°57' E 171°41'1 1.0 1025.1 11.4
2014-Jul-25 17:30N 50°58' E 171°42'1 0.9 1025.5 11.4
2014-Jul-25 16:30N 50°59' E 171°42'0 0.4 1026.2 11.4
2014-Jul-25 15:30N 50°59' E 171°43'3 0.5 1026.7 11.4
2014-Jul-25 08:30N 51°02' E 171°45'2 1.5 1029.4 11.5
2014-Jul-25 07:30N 51°03' E 171°47'1 0.4 1029.4 11.5
2014-Jul-25 03:30N 51°04' E 171°48'0 0.0 1030.6 11.5
2014-Jul-25 02:30N 51°04' E 171°48'1 0.6 1030.9 11.5
2014-Jul-25 00:30N 51°05' E 171°49'4 0.5 1031.5 11.5
2014-Jul-24 17:30N 51°09' E 171°49'1 0.8 1032.3 11.4
2014-Jul-24 16:30N 51°10' E 171°49'1 1.2 1032.3 11.4
2014-Jul-24 15:30N 51°11' E 171°50'0 0.0 1032.5 11.4
2014-Jul-24 13:30N 51°11' E 171°50'2 0.8 1032.9 11.5
2014-Jul-24 10:30N 51°13' E 171°51'0 0.0 1032.9 11.5
2014-Jul-24 09:30N 51°13' E 171°51'2 0.8 1033.1 11.5
2014-Jul-24 07:30N 51°15' E 171°51'2 0.5 1032.4 11.5
2014-Jul-24 03:30N 51°16' E 171°50'0 0.3 1032.1 11.5
2014-Jul-24 02:30N 51°17' E 171°49'0 0.0 1032.1 11.5
2014-Jul-24 00:30N 51°17' E 171°49'1 1.2 1032.0 11.4
2014-Jul-23 23:30N 51°18' E 171°50'3 0.8 1031.8 11.4
2014-Jul-23 19:30N 51°21' E 171°48'1 0.4 1031.5 11.3
2014-Jul-23 16:30N 51°22' E 171°48'3 0.7 1030.7 11.4
2014-Jul-23 12:30N 51°24' E 171°46'1 0.3 1030.3 11.4
2014-Jul-23 07:30N 51°26' E 171°45'1 1.3 1029.1 11.5
2014-Jul-23 06:30N 51°27' E 171°45'1 0.5 1028.9 11.5
2014-Jul-23 04:30N 51°28' E 171°44'2 0.4 1028.5 11.4
2014-Jul-22 23:30N 51°30' E 171°44'3 0.8 1027.5 11.2
2014-Jul-22 19:30N 51°32' E 171°41'0 0.0 1026.7 11.2
2014-Jul-22 18:30N 51°32' E 171°41'2 0.7 1026.1 11.2
2014-Jul-22 15:30N 51°34' E 171°39'1 0.7 1025.2 11.2
2014-Jul-22 13:30N 51°35' E 171°38'1 0.3 1024.7 11.2
2014-Jul-22 09:30N 51°36' E 171°37'   1024.2 11.2
Track history (hours):
 
Tides and Currents Weather Stations Pressure Air Temp Water Temp Dewpoint Dewpoint Depression Visibility Wind Speed Wind Dir Waves Ship Positions

Drifting buoy 46770

Last reported at 2014-Aug-01 07:30 UTC. Time now 2014-Aug-01 14:00 UTC.
Position N 50°40' E 169°52'.

Barometer 1009.9 mb
Water temperature 11.6 ° C

Date/timePositionNaut miles runAvg speedWind from/ knotsBaromVisibWave heightAir tempDewpointWater temp
2014-Aug-01 07:30N 50°40' E 169°52'1 0.4 1009.9 11.6
2014-Aug-01 04:30N 50°40' E 169°53'1 0.3 1009.0 11.6
2014-Aug-01 02:30N 50°39' E 169°54'2 0.6 1008.7 11.6
2014-Jul-31 23:30N 50°37' E 169°55'3 0.7 1008.0 11.5
2014-Jul-31 19:30N 50°37' E 169°59'0 0.2 1006.6 11.4
2014-Jul-31 16:30N 50°37' E 170°00'0 0.1 1004.8 11.4
2014-Jul-31 15:30N 50°37' E 170°00'1 0.4 1004.5 11.4
2014-Jul-31 13:30N 50°36' E 170°01'2 0.5 1004.1 11.4
2014-Jul-31 09:30N 50°35' E 170°03'3 0.7 1003.3 11.4
2014-Jul-31 05:30N 50°34' E 170°08'1 0.8 1002.3 11.4
2014-Jul-31 04:30N 50°34' E 170°09'2 0.6 1002.4 11.4
2014-Jul-31 01:30N 50°34' E 170°12'0 0.0 1002.4 11.4
2014-Jul-31 00:30N 50°34' E 170°12'3 0.4 1002.4 11.4
2014-Jul-30 17:30N 50°33' E 170°16'1 0.7 1002.3 11.3
2014-Jul-30 16:30N 50°33' E 170°17'1 1.4 1002.1 11.3
2014-Jul-30 15:30N 50°32' E 170°19'4 0.5 1002.3 11.3
2014-Jul-30 08:30N 50°33' E 170°25'1 1.0 1002.9 11.4
2014-Jul-30 07:30N 50°33' E 170°26'0 0.0 1002.5 11.4
2014-Jul-30 06:30N 50°33' E 170°26'3 0.7 1002.2 11.4
2014-Jul-30 02:30N 50°33' E 170°30'1 0.5 1001.3 11.3
2014-Jul-30 01:30N 50°32' E 170°30'4 0.6 1001.3 11.3
2014-Jul-29 18:30N 50°34' E 170°36'0 0.0 1001.4 11.2
2014-Jul-29 17:30N 50°34' E 170°36'1 0.5 1001.5 11.2
2014-Jul-29 16:30N 50°34' E 170°37'1 0.7 1001.9 11.2
2014-Jul-29 15:30N 50°34' E 170°38'0 0.3 1002.3 11.2
2014-Jul-29 14:30N 50°34' E 170°38'4 0.7 1002.6 11.2
2014-Jul-29 09:30N 50°33' E 170°43'1 0.6 1003.5 11.2
2014-Jul-29 07:30N 50°33' E 170°45'3 1.0 1004.0 11.3
2014-Jul-29 04:30N 50°34' E 170°49'2 0.5 1004.5 11.3
2014-Jul-28 23:30N 50°35' E 170°52'0 0.0 1006.2 11.2
2014-Jul-28 22:30N 50°35' E 170°52'2 0.4 1006.3 11.2
2014-Jul-28 18:30N 50°36' E 170°54'6 0.9 1007.3 11.2
2014-Jul-28 12:30N 50°38' E 171°03'1 0.3 1007.9 11.1
2014-Jul-28 09:30N 50°38' E 171°03'2 0.4 1008.5 11.1
2014-Jul-28 03:30N 50°40' E 171°06'1 1.2 1008.8 11.1
2014-Jul-28 02:30N 50°40' E 171°08'0 0.4 1009.2 11.1
2014-Jul-28 01:30N 50°40' E 171°09'1 0.5 1009.6 11.1
2014-Jul-28 00:30N 50°40' E 171°09'5 0.6 1010.1 11.1
2014-Jul-27 16:30N 50°43' E 171°15'0 0.2 1010.5 11.0
2014-Jul-27 14:30N 50°44' E 171°15'2 0.5 1010.7 11.1
2014-Jul-27 09:30N 50°45' E 171°19'0 0.4 1011.5 11.2
2014-Jul-27 08:30N 50°45' E 171°19'3 0.7 1011.5 11.2
2014-Jul-27 04:30N 50°45' E 171°24'2 0.5 1012.8 11.3
2014-Jul-27 01:30N 50°46' E 171°26'0 0.0 1015.0 11.3
2014-Jul-27 00:30N 50°46' E 171°26'2 1.0 1015.6 11.3
2014-Jul-26 22:30N 50°46' E 171°29'4 0.6 1016.8 11.3
2014-Jul-26 16:30N 50°50' E 171°32'0 0.2 1017.8 11.3
2014-Jul-26 15:30N 50°50' E 171°32'1 0.6 1018.2 11.3
2014-Jul-26 14:30N 50°50' E 171°33'0 0.0 1018.6 11.3
2014-Jul-26 13:30N 50°50' E 171°33'3 0.7 1018.8 11.3
2014-Jul-26 08:30N 50°52' E 171°38'0 0.0 1020.5 11.4
2014-Jul-26 07:30N 50°52' E 171°38'3 0.6 1020.3 11.4
2014-Jul-26 02:30N 50°55' E 171°40'0 0.3 1022.3 11.3
2014-Jul-26 01:30N 50°55' E 171°39'1 0.6 1022.5 11.3
2014-Jul-26 00:30N 50°55' E 171°39'2 0.6 1022.9 11.3
2014-Jul-25 21:30N 50°57' E 171°41'1 0.3 1024.0 11.3
2014-Jul-25 18:30N 50°57' E 171°41'1 1.0 1025.1 11.4
2014-Jul-25 17:30N 50°58' E 171°42'1 0.9 1025.5 11.4
2014-Jul-25 16:30N 50°59' E 171°42'0 0.4 1026.2 11.4
2014-Jul-25 15:30N 50°59' E 171°43'3 0.5 1026.7 11.4
2014-Jul-25 08:30N 51°02' E 171°45'2 1.5 1029.4 11.5
2014-Jul-25 07:30N 51°03' E 171°47'1 0.4 1029.4 11.5
2014-Jul-25 03:30N 51°04' E 171°48'0 0.0 1030.6 11.5
2014-Jul-25 02:30N 51°04' E 171°48'1 0.6 1030.9 11.5
2014-Jul-25 00:30N 51°05' E 171°49'4 0.5 1031.5 11.5
2014-Jul-24 17:30N 51°09' E 171°49'1 0.8 1032.3 11.4
2014-Jul-24 16:30N 51°10' E 171°49'1 1.2 1032.3 11.4
2014-Jul-24 15:30N 51°11' E 171°50'0 0.0 1032.5 11.4
2014-Jul-24 13:30N 51°11' E 171°50'2 0.8 1032.9 11.5
2014-Jul-24 10:30N 51°13' E 171°51'0 0.0 1032.9 11.5
2014-Jul-24 09:30N 51°13' E 171°51'2 0.8 1033.1 11.5
2014-Jul-24 07:30N 51°15' E 171°51'2 0.5 1032.4 11.5
2014-Jul-24 03:30N 51°16' E 171°50'0 0.3 1032.1 11.5
2014-Jul-24 02:30N 51°17' E 171°49'0 0.0 1032.1 11.5
2014-Jul-24 00:30N 51°17' E 171°49'1 1.2 1032.0 11.4
2014-Jul-23 23:30N 51°18' E 171°50'3 0.8 1031.8 11.4
2014-Jul-23 19:30N 51°21' E 171°48'1 0.4 1031.5 11.3
2014-Jul-23 16:30N 51°22' E 171°48'3 0.7 1030.7 11.4
2014-Jul-23 12:30N 51°24' E 171°46'1 0.3 1030.3 11.4
2014-Jul-23 07:30N 51°26' E 171°45'1 1.3 1029.1 11.5
2014-Jul-23 06:30N 51°27' E 171°45'1 0.5 1028.9 11.5
2014-Jul-23 04:30N 51°28' E 171°44'2 0.4 1028.5 11.4
2014-Jul-22 23:30N 51°30' E 171°44'3 0.8 1027.5 11.2
2014-Jul-22 19:30N 51°32' E 171°41'0 0.0 1026.7 11.2
2014-Jul-22 18:30N 51°32' E 171°41'2 0.7 1026.1 11.2
2014-Jul-22 15:30N 51°34' E 171°39'1 0.7 1025.2 11.2
2014-Jul-22 13:30N 51°35' E 171°38'1 0.3 1024.7 11.2
2014-Jul-22 09:30N 51°36' E 171°37'   1024.2 11.2

Dump ship's entire track history